Time;durP1;ratioP1;P1;durP2;ratioP2;P2;SDS_P1;SDS_P2;PMS_P1;PMS_P2;Temp;Humidity;BMP_temperature;BMP_pressure;BME280_temperature;BME280_humidity;BME280_pressure;Samples;Min_cycle;Max_cycle;Signal;HPM_P1;HPM_P2
2023/04/24 00:02:12;;;;;;;6.43;3.58;;;;;;;13.57;63.40;98226.81;5046481;28;20036;-94
2023/04/24 00:04:40;;;;;;;9.40;3.58;;;;;;;13.54;64.00;98219.81;5046828;28;20540;-94
2023/04/24 00:07:07;;;;;;;6.82;3.50;;;;;;;13.54;64.79;98232.31;5048856;28;20045;-94
2023/04/24 00:09:33;;;;;;;5.90;4.15;;;;;;;13.39;65.58;98207.19;5053055;28;20037;-95
2023/04/24 00:11:59;;;;;;;7.18;3.67;;;;;;;13.52;66.29;98231.53;5050971;28;20055;-94
2023/04/24 00:14:25;;;;;;;9.13;4.25;;;;;;;13.38;66.99;98205.47;5050361;28;20032;-94
2023/04/24 00:16:51;;;;;;;8.15;3.70;;;;;;;13.47;67.86;98215.72;5041272;28;20048;-94
2023/04/24 00:19:17;;;;;;;7.07;3.72;;;;;;;13.28;68.09;98183.66;5050015;28;20087;-94
2023/04/24 00:21:44;;;;;;;7.78;3.60;;;;;;;13.38;68.56;98194.78;5041521;28;20045;-94
2023/04/24 00:24:10;;;;;;;10.52;3.70;;;;;;;13.41;69.00;98205.31;5046212;28;20065;-94
2023/04/24 00:26:36;;;;;;;7.50;3.63;;;;;;;13.26;69.34;98185.50;5048305;28;20044;-94
2023/04/24 00:29:02;;;;;;;8.20;3.58;;;;;;;13.42;69.67;98212.38;5047866;28;20061;-95
2023/04/24 00:31:28;;;;;;;9.20;4.40;;;;;;;13.52;69.47;98204.81;5046313;28;20053;-95
2023/04/24 00:33:55;;;;;;;8.32;3.83;;;;;;;13.33;69.41;98168.28;5035586;28;20042;-94
2023/04/24 00:36:21;;;;;;;8.20;4.05;;;;;;;13.28;70.03;98167.66;5037448;28;20041;-94
2023/04/24 00:38:49;;;;;;;8.68;4.45;;;;;;;13.23;70.61;98169.66;5035029;28;20037;-94
2023/04/24 00:41:15;;;;;;;9.18;4.88;;;;;;;13.47;70.99;98209.50;5036741;28;20045;-95
2023/04/24 00:43:41;;;;;;;9.40;4.97;;;;;;;13.30;71.17;98171.13;5037310;28;20151;-94
2023/04/24 00:46:07;;;;;;;9.13;3.78;;;;;;;13.50;71.93;98196.84;5036534;28;20506;-93
2023/04/24 00:48:34;;;;;;;9.98;4.35;;;;;;;13.43;72.42;98195.44;5037124;28;20045;-95
2023/04/24 00:51:00;;;;;;;9.68;4.10;;;;;;;13.63;72.58;98221.19;5035427;28;20518;-94
2023/04/24 00:53:25;;;;;;;7.80;4.22;;;;;;;13.63;72.53;98210.50;5036628;28;20042;-94
2023/04/24 00:55:53;;;;;;;8.77;4.20;;;;;;;13.45;72.73;98182.88;5035199;28;20522;-95
2023/04/24 00:58:19;;;;;;;9.38;4.20;;;;;;;13.66;73.22;98214.81;5033997;28;20049;-94
2023/04/24 01:00:46;;;;;;;9.10;4.60;;;;;;;13.54;73.70;98179.75;5035548;28;20041;-94
2023/04/24 01:03:13;;;;;;;11.13;4.72;;;;;;;13.67;74.03;98198.72;5036039;28;20041;-95
2023/04/24 01:05:39;;;;;;;9.40;4.35;;;;;;;13.51;74.05;98166.56;5031539;28;20030;-94
2023/04/24 01:08:07;;;;;;;9.13;4.70;;;;;;;13.61;73.42;98171.44;5036191;28;20363;-93
2023/04/24 01:10:36;;;;;;;8.10;4.20;;;;;;;13.64;73.26;98171.28;5037395;28;20129;-94
2023/04/24 01:13:03;;;;;;;9.93;4.63;;;;;;;13.46;73.50;98141.84;5037389;28;20037;-94
2023/04/24 01:15:29;;;;;;;8.38;4.68;;;;;;;13.49;73.65;98132.84;5031049;28;20064;-95
2023/04/24 01:17:55;;;;;;;9.23;4.63;;;;;;;13.62;73.48;98158.00;5036350;28;20045;-94
2023/04/24 01:20:22;;;;;;;7.32;4.35;;;;;;;13.70;73.54;98158.47;5032956;28;20517;-94
2023/04/24 01:22:49;;;;;;;9.82;4.50;;;;;;;13.60;74.27;98134.97;5035602;28;20042;-94
2023/04/24 01:25:15;;;;;;;9.02;4.57;;;;;;;13.66;75.87;98148.03;5033725;28;20521;-95
2023/04/24 01:27:41;;;;;;;11.27;5.07;;;;;;;13.68;76.24;98146.13;5036345;28;20111;-93
2023/04/24 01:30:09;;;;;;;11.40;5.18;;;;;;;13.82;77.76;98178.41;5035601;28;20045;-94
2023/04/24 01:32:36;;;;;;;8.82;4.70;;;;;;;13.65;78.89;98135.63;5033557;28;20029;-93
2023/04/24 01:35:02;;;;;;;13.02;5.35;;;;;;;13.73;81.57;98154.81;5036712;28;20045;-95
2023/04/24 01:37:28;;;;;;;13.80;5.22;;;;;;;13.71;82.08;98140.66;5036893;28;20048;-95
2023/04/24 01:39:56;;;;;;;10.95;5.53;;;;;;;13.77;82.54;98141.22;5034932;28;20049;-94
2023/04/24 01:42:22;;;;;;;14.90;5.68;;;;;;;13.63;83.86;98114.31;5036306;28;20042;-94
2023/04/24 01:44:48;;;;;;;10.52;5.90;;;;;;;13.61;84.61;98113.53;5035755;28;20372;-94
2023/04/24 01:47:15;;;;;;;13.10;5.60;;;;;;;13.60;85.22;98106.47;5035783;28;20055;-93
2023/04/24 01:49:41;;;;;;;11.30;5.18;;;;;;;13.77;86.22;98124.31;5035922;28;20046;-95
2023/04/24 01:52:07;;;;;;;10.93;5.65;;;;;;;13.73;86.68;98114.72;5035947;28;20060;-94
2023/04/24 01:54:33;;;;;;;11.77;5.90;;;;;;;13.86;86.34;98117.66;5033190;28;20041;-95
2023/04/24 01:57:02;;;;;;;11.50;5.30;;;;;;;13.70;86.21;98086.34;5035853;28;20068;-94
2023/04/24 01:59:28;;;;;;;12.85;6.03;;;;;;;13.74;86.19;98087.91;5034549;28;20132;-95
2023/04/24 02:01:54;;;;;;;10.35;4.82;;;;;;;13.68;86.32;98076.66;5026461;28;20041;-94
2023/04/24 02:04:20;;;;;;;14.88;6.07;;;;;;;13.84;85.89;98096.34;5016511;28;20562;-94
2023/04/24 02:06:46;;;;;;;13.77;6.13;;;;;;;13.75;85.77;98080.78;5033174;28;20079;-95
2023/04/24 02:09:12;;;;;;;12.95;5.72;;;;;;;13.95;86.06;98123.38;5036460;28;20037;-95
2023/04/24 02:11:38;;;;;;;15.50;6.68;;;;;;;13.99;85.04;98110.72;5036377;28;20056;-93
2023/04/24 02:14:05;;;;;;;17.98;5.95;;;;;;;13.83;85.04;98075.88;5031668;28;20438;-94
2023/04/24 02:16:32;;;;;;;12.95;5.72;;;;;;;13.75;85.50;98070.94;5036165;28;20041;-94
2023/04/24 02:18:58;;;;;;;17.92;6.47;;;;;;;14.06;84.77;98109.47;5035224;28;20049;-94
2023/04/24 02:21:25;;;;;;;9.40;5.13;;;;;;;13.75;84.91;98056.72;5037271;28;20552;-94
2023/04/24 02:23:51;;;;;;;13.23;5.95;;;;;;;13.76;84.99;98069.13;5021304;28;20050;-93
2023/04/24 02:26:18;;;;;;;14.82;6.63;;;;;;;13.86;85.00;98085.59;5029404;28;20514;-94
2023/04/24 02:28:44;;;;;;;15.05;5.55;;;;;;;14.05;84.68;98104.19;5018119;28;20038;-93
2023/04/24 02:31:11;;;;;;;15.18;6.25;;;;;;;14.00;84.28;98087.53;5036669;28;20120;-95
2023/04/24 02:33:37;;;;;;;16.42;6.00;;;;;;;13.90;84.28;98077.31;5041041;28;20045;-94
2023/04/24 02:36:03;;;;;;;19.92;6.25;;;;;;;13.83;83.80;98075.03;5040836;28;20042;-94
2023/04/24 02:38:29;;;;;;;12.77;5.55;;;;;;;13.84;83.77;98072.28;5040545;28;20037;-93
2023/04/24 02:40:55;;;;;;;16.75;5.85;;;;;;;13.84;83.38;98069.63;5039723;28;20163;-94
2023/04/24 02:43:21;;;;;;;14.48;6.57;;;;;;;13.98;83.05;98080.44;5040445;28;20144;-93
2023/04/24 02:45:47;;;;;;;20.58;6.35;;;;;;;13.95;82.98;98075.25;5034090;28;20068;-94
2023/04/24 02:48:14;;;;;;;19.85;6.32;;;;;;;13.93;83.04;98082.50;5038974;28;20045;-94
2023/04/24 02:50:40;;;;;;;21.40;6.20;;;;;;;13.80;82.07;98043.13;5039868;28;20025;-93
2023/04/24 02:53:06;;;;;;;17.33;6.38;;;;;;;13.91;81.78;98054.13;5038885;28;20136;-95
2023/04/24 02:55:32;;;;;;;11.85;5.95;;;;;;;14.05;82.14;98073.00;5038335;28;20087;-94
2023/04/24 02:57:58;;;;;;;14.95;6.13;;;;;;;13.99;82.26;98059.94;5039097;28;20046;-93
2023/04/24 03:00:24;;;;;;;17.38;6.45;;;;;;;13.96;82.02;98044.91;5036017;28;20410;-93
2023/04/24 03:02:50;;;;;;;12.95;6.10;;;;;;;13.88;82.59;98041.78;5032193;28;20048;-94
2023/04/24 03:05:17;;;;;;;14.15;6.20;;;;;;;13.76;83.03;98026.38;5034986;28;20037;-93
2023/04/24 03:07:43;;;;;;;15.02;6.30;;;;;;;13.82;83.57;98044.78;5038899;28;20498;-94
2023/04/24 03:10:09;;;;;;;15.38;6.43;;;;;;;13.77;83.77;98039.69;5039220;28;20080;-94
2023/04/24 03:12:35;;;;;;;17.45;6.53;;;;;;;13.76;83.62;98024.56;5031207;28;20046;-93
2023/04/24 03:15:01;;;;;;;16.42;6.30;;;;;;;13.91;83.67;98043.44;5032937;28;20076;-94
2023/04/24 03:17:27;;;;;;;19.02;6.18;;;;;;;13.68;83.61;98001.88;5039490;28;20042;-95
2023/04/24 03:19:53;;;;;;;21.30;7.05;;;;;;;13.85;83.83;98030.38;5038754;28;20048;-95
2023/04/24 03:22:20;;;;;;;18.00;6.60;;;;;;;13.86;84.00;98027.63;5039001;28;20033;-95
2023/04/24 03:24:46;;;;;;;13.85;6.93;;;;;;;13.67;84.13;98001.00;5035001;28;20104;-94
2023/04/24 03:27:12;;;;;;;16.60;6.03;;;;;;;13.83;84.45;98030.44;5036338;28;20018;-95
2023/04/24 03:29:38;;;;;;;15.55;6.40;;;;;;;13.83;84.79;98037.63;5037995;28;20038;-93
2023/04/24 03:32:04;;;;;;;19.67;6.32;;;;;;;13.97;84.35;98051.13;5035681;28;20049;-94
2023/04/24 03:34:29;;;;;;;17.35;6.72;;;;;;;13.87;84.74;98034.69;5036520;28;20411;-94
2023/04/24 03:36:55;;;;;;;14.20;6.55;;;;;;;13.84;84.90;98026.00;5038146;28;20045;-94
2023/04/24 03:39:24;;;;;;;18.73;6.82;;;;;;;13.81;84.94;98004.75;5038001;28;20049;-94
2023/04/24 03:41:50;;;;;;;19.60;7.07;;;;;;;13.91;85.35;98030.06;5067232;28;20532;-93
2023/04/24 03:44:16;;;;;;;15.88;6.45;;;;;;;13.94;85.07;98040.59;5043968;28;20042;-94
2023/04/24 03:46:42;;;;;;;14.38;5.97;;;;;;;13.92;85.01;98039.81;5046093;28;20095;-93
2023/04/24 03:49:07;;;;;;;13.43;5.95;;;;;;;13.95;84.76;98042.34;5042491;28;20043;-94
2023/04/24 03:51:33;;;;;;;15.32;6.70;;;;;;;13.91;85.09;98038.94;5037466;28;20140;-94
2023/04/24 03:53:59;;;;;;;18.55;7.05;;;;;;;13.87;84.77;98023.16;5045766;28;20044;-93
2023/04/24 03:56:26;;;;;;;12.13;6.00;;;;;;;13.97;84.80;98040.44;5043542;28;20041;-93
2023/04/24 03:58:52;;;;;;;15.25;5.57;;;;;;;13.91;84.90;98036.28;5037682;28;20034;-94
2023/04/24 04:01:20;;;;;;;16.98;6.63;;;;;;;13.79;85.16;98012.00;5047347;28;20103;-94
2023/04/24 04:03:46;;;;;;;12.80;5.90;;;;;;;13.77;85.21;98010.28;5042710;28;20148;-94
2023/04/24 04:06:12;;;;;;;16.85;6.72;;;;;;;13.98;84.84;98031.47;5042208;28;20037;-94
2023/04/24 04:08:38;;;;;;;13.95;6.07;;;;;;;13.86;85.35;98014.28;5039025;28;20041;-94
2023/04/24 04:11:04;;;;;;;16.00;6.35;;;;;;;13.85;85.47;98011.69;5037858;28;20048;-93
2023/04/24 04:13:31;;;;;;;10.68;5.63;;;;;;;13.79;85.73;98012.84;5039810;28;20044;-93
2023/04/24 04:15:57;;;;;;;14.10;5.72;;;;;;;13.86;85.79;98016.94;5047400;28;20046;-95
2023/04/24 04:18:23;;;;;;;13.18;5.68;;;;;;;13.87;86.33;98020.47;5046597;28;20103;-94
2023/04/24 04:20:49;;;;;;;16.73;6.43;;;;;;;13.75;85.92;98009.50;5048305;28;20037;-94
2023/04/24 04:23:15;;;;;;;9.65;5.43;;;;;;;13.84;86.01;98018.84;5037408;28;20136;-94
2023/04/24 04:25:41;;;;;;;13.93;6.32;;;;;;;13.72;85.59;97998.09;5046162;28;20522;-94
2023/04/24 04:28:07;;;;;;;18.25;6.20;;;;;;;13.82;85.70;98011.84;5048732;28;20098;-94
2023/04/24 04:30:35;;;;;;;14.82;5.93;;;;;;;13.63;85.75;97982.53;5044098;28;20042;-94
2023/04/24 04:33:01;;;;;;;12.63;4.95;;;;;;;13.71;85.71;97993.72;5044580;28;20071;-93
2023/04/24 04:35:26;;;;;;;12.85;5.22;;;;;;;13.76;85.59;98005.00;5042475;28;20111;-94
2023/04/24 04:37:52;;;;;;;13.02;5.47;;;;;;;13.82;85.89;98022.53;5057261;28;20049;-94
2023/04/24 04:40:18;;;;;;;16.17;5.53;;;;;;;13.82;85.85;98015.38;5041485;28;20168;-93
2023/04/24 04:42:45;;;;;;;12.40;5.25;;;;;;;13.83;86.16;98011.75;5055124;28;20026;-94
2023/04/24 04:45:11;;;;;;;10.57;5.05;;;;;;;13.67;86.68;98000.16;5055293;28;20065;-94
2023/04/24 04:47:39;;;;;;;12.98;5.20;;;;;;;13.73;86.62;97998.03;5038529;28;20064;-94
2023/04/24 04:50:06;;;;;;;12.65;6.07;;;;;;;13.77;86.68;98002.25;5049022;28;20043;-94
2023/04/24 04:52:32;;;;;;;10.00;5.22;;;;;;;13.83;87.24;98009.06;5056732;28;20482;-94
2023/04/24 04:54:57;;;;;;;13.05;6.10;;;;;;;13.59;88.13;97989.00;5045680;28;20045;-94
2023/04/24 04:57:23;;;;;;;13.63;5.25;;;;;;;13.83;87.93;98016.22;5037086;28;20487;-94
2023/04/24 04:59:49;;;;;;;11.50;5.85;;;;;;;13.70;88.78;97990.16;5057260;28;20376;-94
2023/04/24 05:02:15;;;;;;;11.52;4.90;;;;;;;13.84;87.78;98001.94;5056808;28;20052;-93
2023/04/24 05:04:42;;;;;;;13.77;5.35;;;;;;;13.86;87.76;97992.91;5057146;28;20045;-94
2023/04/24 05:07:08;;;;;;;13.18;5.10;;;;;;;13.75;88.59;97987.25;5057178;28;20474;-93
2023/04/24 05:09:34;;;;;;;10.60;5.50;;;;;;;13.75;88.51;97976.56;5057818;28;20045;-93
2023/04/24 05:12:01;;;;;;;9.77;5.38;;;;;;;13.87;88.90;97997.28;5057257;28;20037;-94
2023/04/24 05:14:27;;;;;;;15.25;5.22;;;;;;;13.88;89.38;98007.03;5048752;28;20044;-94
2023/04/24 05:16:53;;;;;;;12.25;5.70;;;;;;;13.77;90.24;97991.56;5044405;28;20552;-94
2023/04/24 05:19:19;;;;;;;16.88;6.22;;;;;;;13.96;90.51;98025.34;5057477;28;20049;-94
2023/04/24 05:21:48;;;;;;;17.77;6.00;;;;;;;13.73;90.72;97983.81;5057522;28;20053;-95
2023/04/24 05:24:14;;;;;;;12.65;5.85;;;;;;;13.97;90.52;98021.72;5055524;28;20041;-94
2023/04/24 05:26:40;;;;;;;12.75;6.18;;;;;;;13.94;90.46;98008.50;5041499;28;20108;-95
2023/04/24 05:29:06;;;;;;;12.35;6.10;;;;;;;14.02;91.03;98030.34;5042694;28;20068;-93
2023/04/24 05:31:32;;;;;;;11.85;4.93;;;;;;;14.03;90.81;98021.41;5056391;28;20067;-93
2023/04/24 05:33:57;;;;;;;14.45;5.40;;;;;;;13.95;91.01;98007.59;5056907;28;20099;-94
2023/04/24 05:36:23;;;;;;;14.65;5.78;;;;;;;13.84;91.49;97986.75;5056689;28;20037;-94
2023/04/24 05:38:51;;;;;;;9.75;5.65;;;;;;;13.76;93.99;97981.81;5044491;28;20044;-94
2023/04/24 05:41:17;;;;;;;12.38;5.40;;;;;;;13.97;96.27;98033.28;5041139;28;20045;-94
2023/04/24 05:43:42;;;;;;;11.75;6.00;;;;;;;13.88;99.66;98030.22;5042612;28;20045;-95
2023/04/24 05:46:08;;;;;;;13.63;6.57;;;;;;;13.54;100.00;98010.59;5043342;28;20075;-95
2023/04/24 05:48:35;;;;;;;13.95;6.07;;;;;;;13.40;100.00;98008.59;5043851;28;20091;-94
2023/04/24 05:51:01;;;;;;;11.18;5.40;;;;;;;13.32;100.00;98033.06;5042453;28;20037;-94
2023/04/24 05:53:26;;;;;;;10.10;5.60;;;;;;;13.18;100.00;98016.81;5042556;28;20049;-94
2023/04/24 05:55:54;;;;;;;11.73;5.82;;;;;;;13.15;100.00;97975.13;5042968;28;20045;-95
2023/04/24 05:58:20;;;;;;;14.93;7.05;;;;;;;13.30;100.00;98004.69;5042759;28;20041;-94
2023/04/24 06:00:46;;;;;;;13.80;6.50;;;;;;;13.01;100.00;97974.06;5042166;28;20055;-96
2023/04/24 06:03:12;;;;;;;12.45;6.35;;;;;;;12.84;100.00;97930.44;5042138;28;20144;-95
2023/04/24 06:05:38;;;;;;;14.55;6.50;;;;;;;12.85;100.00;97929.47;5045604;28;20120;-94
2023/04/24 06:08:04;;;;;;;12.07;6.43;;;;;;;12.95;100.00;97940.56;5046967;28;20080;-94
2023/04/24 06:10:30;;;;;;;10.20;6.18;;;;;;;12.86;100.00;97943.66;5047086;28;20084;-94
2023/04/24 06:13:00;;;;;;;10.63;5.72;;;;;;;12.73;100.00;97927.44;5047337;28;20037;-95
2023/04/24 06:15:28;;;;;;;9.82;5.78;;;;;;;12.80;100.00;97936.00;5046780;28;20080;-94
2023/04/24 06:17:54;;;;;;;11.02;6.10;;;;;;;12.62;100.00;97919.06;5048112;28;20033;-94
2023/04/24 06:20:20;;;;;;;11.13;5.90;;;;;;;12.58;100.00;97918.38;5047739;28;20045;-95
2023/04/24 06:22:46;;;;;;;10.50;5.05;;;;;;;12.70;100.00;97938.25;5047477;28;20537;-94
2023/04/24 06:25:12;;;;;;;11.15;4.88;;;;;;;12.89;100.00;97971.06;5047513;28;20041;-95
2023/04/24 06:27:38;;;;;;;11.48;4.82;;;;;;;12.97;100.00;97972.50;5047346;28;20558;-95
2023/04/24 06:30:07;;;;;;;9.48;4.80;;;;;;;12.94;100.00;97968.19;5047206;28;20049;-95
2023/04/24 06:32:33;;;;;;;9.88;5.07;;;;;;;12.81;100.00;97935.91;5046158;28;20056;-94
2023/04/24 06:34:59;;;;;;;8.70;4.68;;;;;;;13.10;100.00;97992.31;5047160;28;20131;-95
2023/04/24 06:37:26;;;;;;;9.00;4.90;;;;;;;12.86;100.00;97946.34;5046162;28;20140;-94
2023/04/24 06:39:52;;;;;;;6.68;4.50;;;;;;;12.97;100.00;97973.38;5046748;28;20045;-95
2023/04/24 06:42:20;;;;;;;7.20;3.88;;;;;;;13.03;100.00;97985.53;5045617;28;20045;-94
2023/04/24 06:44:46;;;;;;;8.27;4.32;;;;;;;12.83;100.00;97963.38;5047190;28;20069;-95
2023/04/24 06:47:14;;;;;;;7.45;3.60;;;;;;;13.20;100.00;97993.56;5045157;28;20053;-94
2023/04/24 06:49:42;;;;;;;5.60;3.20;;;;;;;13.01;100.00;97961.63;5048022;28;20041;-95
2023/04/24 06:52:08;;;;;;;4.68;3.20;;;;;;;13.04;100.00;97953.44;5049366;28;20048;-95
2023/04/24 06:54:34;;;;;;;6.13;3.10;;;;;;;13.31;100.00;98009.09;5047206;28;20049;-95
2023/04/24 06:57:02;;;;;;;7.28;3.15;;;;;;;12.85;100.00;97981.97;5046290;28;20052;-95
2023/04/24 06:59:28;;;;;;;4.70;3.33;;;;;;;12.98;100.00;97996.44;5045987;28;20041;-95
2023/04/24 07:01:54;;;;;;;5.22;3.33;;;;;;;12.87;100.00;97983.63;5045546;28;20065;-95
2023/04/24 07:04:22;;;;;;;5.15;3.40;;;;;;;13.00;100.00;97981.22;5046597;28;20116;-94
2023/04/24 07:06:51;;;;;;;5.75;3.67;;;;;;;13.16;100.00;97997.31;5046057;28;20398;-95
2023/04/24 07:09:18;;;;;;;5.88;3.88;;;;;;;13.50;100.00;98035.72;5046061;28;20143;-94
2023/04/24 07:11:44;;;;;;;7.00;4.15;;;;;;;13.62;100.00;98032.44;5044567;28;20045;-95
2023/04/24 07:14:10;;;;;;;6.70;4.18;;;;;;;13.48;100.00;98008.25;5046255;28;20041;-95
2023/04/24 07:16:36;;;;;;;7.15;4.50;;;;;;;13.40;100.00;97997.06;5044293;28;20037;-96
2023/04/24 07:19:02;;;;;;;9.25;4.30;;;;;;;13.44;100.00;98010.19;5047661;28;20040;-95
2023/04/24 07:21:31;;;;;;;6.85;4.03;;;;;;;13.55;100.00;98039.91;5061144;28;20125;-95
2023/04/24 07:23:56;;;;;;;4.73;3.23;;;;;;;13.29;100.00;97985.16;5062131;28;20099;-94
2023/04/24 07:26:22;;;;;;;6.63;3.30;;;;;;;13.41;100.00;97978.31;5062150;28;20278;-95
2023/04/24 07:28:48;;;;;;;6.93;3.20;;;;;;;13.43;100.00;97981.78;5063548;28;20065;-95
2023/04/24 07:31:15;;;;;;;9.18;3.17;;;;;;;13.32;100.00;97979.66;5063592;28;20055;-94
2023/04/24 07:33:41;;;;;;;6.53;3.25;;;;;;;13.43;100.00;97964.88;5062279;28;20041;-94
2023/04/24 07:36:07;;;;;;;7.00;3.20;;;;;;;13.53;100.00;97964.34;5063756;28;20041;-94
2023/04/24 07:38:34;;;;;;;5.45;3.03;;;;;;;13.48;100.00;97968.16;5064083;28;20045;-95
2023/04/24 07:41:00;;;;;;;5.45;2.50;;;;;;;13.74;100.00;97983.69;5061168;28;20033;-94
2023/04/24 07:43:27;;;;;;;7.55;3.33;;;;;;;13.97;100.00;97968.28;5059250;28;20368;-93
2023/04/24 07:45:53;;;;;;;4.90;2.60;;;;;;;14.62;99.60;98000.41;5049373;28;20060;-94
2023/04/24 07:48:21;;;;;;;6.57;2.65;;;;;;;14.77;98.85;97979.97;5043331;28;20041;-96
2023/04/24 07:50:47;;;;;;;5.13;2.72;;;;;;;14.86;93.66;97963.38;5042476;28;20155;-94
2023/04/24 07:53:13;;;;;;;6.20;2.45;;;;;;;14.99;95.34;97971.56;5043355;28;20049;-95
2023/04/24 07:55:41;;;;;;;7.07;3.20;;;;;;;15.02;96.43;97994.59;5063290;28;20044;-93
2023/04/24 07:58:07;;;;;;;4.72;2.88;;;;;;;14.98;97.56;97985.88;5062901;28;20079;-94
2023/04/24 08:00:33;;;;;;;4.53;3.10;;;;;;;14.99;98.76;97960.84;5060470;28;20055;-95
2023/04/24 08:02:59;;;;;;;5.22;3.33;;;;;;;15.06;97.60;97956.00;5059392;28;20048;-93
2023/04/24 08:05:27;;;;;;;8.20;4.03;;;;;;;14.86;98.19;97971.41;5058581;28;20055;-95
2023/04/24 08:07:53;;;;;;;5.22;3.20;;;;;;;14.65;99.45;97961.91;5057788;28;20045;-95
2023/04/24 08:10:19;;;;;;;6.93;3.15;;;;;;;14.74;100.00;97972.09;5060334;28;20175;-95
2023/04/24 08:12:46;;;;;;;8.13;3.80;;;;;;;14.86;99.75;97963.38;5061749;28;20061;-95
2023/04/24 08:15:12;;;;;;;11.00;5.45;;;;;;;14.85;100.00;97968.78;5062447;28;20045;-95
2023/04/24 08:17:38;;;;;;;12.85;6.20;;;;;;;14.81;100.00;97957.41;5058135;28;20132;-94
2023/04/24 08:20:05;;;;;;;9.80;5.53;;;;;;;14.86;100.00;97990.13;5045350;28;20160;-95
2023/04/24 08:22:31;;;;;;;10.40;5.30;;;;;;;14.80;100.00;97961.03;5046055;28;20065;-96
2023/04/24 08:24:59;;;;;;;11.20;6.18;;;;;;;15.42;100.00;97955.66;5053171;28;20045;-95
2023/04/24 08:27:26;;;;;;;12.30;5.63;;;;;;;15.93;99.27;97999.03;5059994;28;20033;-95
2023/04/24 08:29:54;;;;;;;8.63;4.50;;;;;;;16.66;95.39;97960.47;5059097;28;20402;-94
2023/04/24 08:32:20;;;;;;;10.88;5.25;;;;;;;17.19;92.68;97950.72;5052695;28;20059;-95
2023/04/24 08:34:46;;;;;;;10.40;4.82;;;;;;;17.37;91.74;97972.84;5043988;28;20041;-95
2023/04/24 08:37:13;;;;;;;7.18;4.35;;;;;;;17.36;89.55;97957.66;5041785;28;20041;-95
2023/04/24 08:39:39;;;;;;;8.38;4.50;;;;;;;17.77;85.84;97966.56;5042131;28;20391;-94
2023/04/24 08:42:07;;;;;;;8.05;4.40;;;;;;;17.96;85.54;97963.47;5037085;28;20045;-95
2023/04/24 08:44:35;;;;;;;10.63;4.88;;;;;;;18.55;83.68;97985.28;5052937;28;20082;-95
2023/04/24 08:47:04;;;;;;;7.93;3.95;;;;;;;19.31;78.00;97948.28;5058532;28;20045;-94
2023/04/24 08:49:30;;;;;;;7.40;4.25;;;;;;;18.97;76.49;97950.78;5051850;28;20063;-94
2023/04/24 08:51:56;;;;;;;9.35;4.28;;;;;;;18.26;81.31;97958.63;5040338;28;20068;-94
2023/04/24 08:54:23;;;;;;;8.38;4.15;;;;;;;18.19;83.04;97967.22;5039917;28;20059;-94
2023/04/24 08:56:50;;;;;;;9.52;4.95;;;;;;;17.99;83.33;97945.28;5051995;28;20047;-93
2023/04/24 08:59:16;;;;;;;9.63;5.00;;;;;;;17.60;85.56;97970.41;5056369;28;20037;-95
2023/04/24 09:01:45;;;;;;;6.65;4.45;;;;;;;17.69;86.81;97975.13;5046363;28;20048;-94
2023/04/24 09:04:15;;;;;;;6.55;4.32;;;;;;;17.62;85.85;97945.13;5047446;28;20098;-94
2023/04/24 09:06:41;;;;;;;9.45;4.28;;;;;;;17.77;83.43;97948.59;5055936;28;20045;-93
2023/04/24 09:09:11;;;;;;;10.07;4.70;;;;;;;18.18;83.18;97954.75;5056700;28;20041;-94
2023/04/24 09:11:40;;;;;;;9.80;4.60;;;;;;;18.09;83.49;97918.59;5060907;28;20048;-95
2023/04/24 09:14:09;;;;;;;8.50;4.50;;;;;;;18.19;81.95;97911.56;5056753;28;20064;-93
2023/04/24 09:16:35;;;;;;;;;;;;;;;18.57;81.04;97940.25;5056924;28;20044;-94
2023/04/24 09:19:01;;;;;;;6.57;4.30;;;;;;;19.00;77.74;97920.94;5044413;28;20835;-91
2023/04/24 09:21:32;;;;;;;6.68;4.03;;;;;;;18.81;77.22;97907.97;5043178;28;20036;-95
2023/04/24 09:23:59;;;;;;;6.03;3.75;;;;;;;18.91;75.08;97920.75;5051089;28;20045;-93
2023/04/24 09:26:26;;;;;;;6.88;4.90;;;;;;;18.25;79.61;97927.28;5055676;28;20136;-95
2023/04/24 09:28:53;;;;;;;8.00;4.60;;;;;;;17.92;84.23;97968.22;5054900;28;20045;-93
2023/04/24 09:31:21;;;;;;;9.35;4.03;;;;;;;17.48;85.49;97961.34;5048633;28;20049;-95
2023/04/24 09:33:54;;;;;;;9.83;4.73;;;;;;;16.75;92.99;97924.97;5059165;28;20043;-95
2023/04/24 09:36:29;;;;;;;7.20;3.80;;;;;;;16.45;93.27;97938.56;5088629;22;20060;-95
2023/04/24 09:38:58;;;;;;;13.75;6.05;;;;;;;16.00;100.00;97961.97;5064359;28;20043;-96
2023/04/24 09:41:26;;;;;;;10.57;5.55;;;;;;;15.74;100.00;97967.13;5071703;28;20069;-95
2023/04/24 09:43:54;;;;;;;12.00;5.20;;;;;;;15.33;100.00;97949.03;5071781;28;20048;-95
2023/04/24 09:46:29;;;;;;;10.48;5.30;;;;;;;15.36;100.00;97962.22;5071749;28;20044;-96
2023/04/24 09:49:07;;;;;;;10.25;4.93;;;;;;;15.89;100.00;97988.59;5072783;28;20056;-96
2023/04/24 09:51:37;;;;;;;9.88;5.63;;;;;;;16.55;100.00;97938.84;5070681;28;20049;-95
2023/04/24 09:54:04;;;;;;;8.93;4.93;;;;;;;16.87;100.00;97934.06;5086522;28;20048;-95
2023/04/24 09:56:33;;;;;;;8.32;5.30;;;;;;;17.33;100.00;97917.56;5068864;28;20140;-96
2023/04/24 09:59:05;;;;;;;10.85;5.10;;;;;;;17.64;100.00;97924.38;5062595;28;20040;-95
2023/04/24 10:01:31;;;;;;;8.25;4.72;;;;;;;18.07;98.00;97952.81;5059331;28;20040;-96
2023/04/24 10:03:57;;;;;;;6.40;3.72;;;;;;;17.96;93.16;97945.50;5063817;28;20025;-96
2023/04/24 10:06:31;;;;;;;8.07;4.10;;;;;;;18.24;93.13;97939.03;5063988;28;20045;-96
2023/04/24 10:08:59;;;;;;;8.65;4.20;;;;;;;18.57;91.81;97918.72;5062583;28;20040;-96
2023/04/24 10:11:26;;;;;;;9.93;3.83;;;;;;;18.80;87.85;97944.00;5060769;28;20079;-94
2023/04/24 10:13:53;;;;;;;6.95;3.60;;;;;;;18.31;85.67;97912.53;5058257;28;20504;-95
2023/04/24 10:16:21;;;;;;;8.27;3.90;;;;;;;18.21;86.22;97904.25;5067731;28;20041;-95
2023/04/24 10:18:48;;;;;;;6.65;3.50;;;;;;;17.98;90.79;97910.44;5069893;28;20139;-94
2023/04/24 10:21:14;;;;;;;8.55;4.43;;;;;;;18.66;88.85;97923.41;5061726;28;20072;-94
2023/04/24 10:23:42;;;;;;;7.22;3.50;;;;;;;19.10;87.50;97929.19;5062700;28;20140;-94
2023/04/24 10:26:09;;;;;;;6.47;3.55;;;;;;;18.93;87.70;97908.03;5061787;28;20047;-94
2023/04/24 10:28:36;;;;;;;7.90;3.90;;;;;;;18.69;86.77;97906.16;5060748;28;20036;-93
2023/04/24 10:31:02;;;;;;;7.35;3.70;;;;;;;18.65;87.45;97931.59;5065607;28;20822;-95
2023/04/24 10:33:30;;;;;;;6.88;3.50;;;;;;;18.23;86.64;97898.75;5061711;28;20044;-94
2023/04/24 10:35:58;;;;;;;8.00;3.70;;;;;;;18.15;87.84;97902.03;5064993;28;20044;-94
2023/04/24 10:38:26;;;;;;;7.30;4.28;;;;;;;18.22;89.46;97897.91;5065118;28;20066;-93
2023/04/24 10:41:06;;;;;;;8.30;3.72;;;;;;;18.27;87.15;97882.28;5064122;28;20143;-95
2023/04/24 10:43:34;;;;;;;8.95;4.10;;;;;;;18.45;85.79;97919.59;5065137;28;20044;-93
2023/04/24 10:46:01;;;;;;;7.37;3.20;;;;;;;17.50;72.95;97880.59;5066136;28;20108;-93
2023/04/24 10:48:27;;;;;;;7.07;3.33;;;;;;;17.61;75.74;97900.41;5061375;28;20461;-94
2023/04/24 10:50:54;;;;;;;4.97;2.92;;;;;;;17.40;76.10;97877.69;5069092;28;20040;-95
2023/04/24 10:53:23;;;;;;;6.05;3.00;;;;;;;17.53;71.82;97873.19;5066861;28;20029;-94
2023/04/24 10:55:50;;;;;;;6.15;2.80;;;;;;;18.08;66.97;97863.06;5069671;28;20119;-93
2023/04/24 10:58:17;;;;;;;6.55;2.78;;;;;;;18.78;71.33;97877.72;5066262;28;20459;-95
2023/04/24 11:00:55;;;;;;;4.93;2.85;;;;;;;19.04;63.11;97881.13;5066950;28;20810;-95
2023/04/24 11:03:26;;;;;;;4.80;2.30;;;;;;;18.85;63.13;97881.69;5062893;28;20163;-94
2023/04/24 11:05:58;;;;;;;4.40;2.10;;;;;;;18.35;61.84;97899.72;5073057;28;20040;-95
2023/04/24 11:08:26;;;;;;;4.88;2.30;;;;;;;18.55;59.88;97871.34;5073914;28;20045;-94
2023/04/24 11:11:01;;;;;;;3.95;2.10;;;;;;;18.62;62.26;97861.81;5066873;28;20041;-95
2023/04/24 11:13:48;;;;;;;2.90;1.60;;;;;;;18.51;53.87;97868.00;5065016;28;20040;-94
2023/04/24 11:16:21;;;;;;;5.55;1.90;;;;;;;18.84;57.45;97840.41;5065360;28;20044;-95
2023/04/24 11:18:53;;;;;;;2.63;1.63;;;;;;;18.92;53.72;97861.38;5070949;28;20044;-95
2023/04/24 11:21:19;;;;;;;2.17;1.50;;;;;;;18.63;53.16;97848.25;5071386;28;20443;-94
2023/04/24 11:23:45;;;;;;;3.38;1.65;;;;;;;18.53;49.66;97852.59;5065937;28;20048;-95
2023/04/24 11:26:12;;;;;;;4.60;1.60;;;;;;;18.54;49.13;97859.72;5064646;28;20104;-94